ADDS METAR Data INFO
IDs: Format: Raw Decoded Include TAF

Data at: 1957 UTC 15 Dec 2017

KFWB 151935Z AUTO 26011G16KT 230V320 10SM SCT041 08/M04 A3012 RMK AO2
KFWB 151915Z AUTO 32011G16KT 10SM BKN039 08/M03 A3013 RMK AO2
KFWB 151855Z AUTO 31011G15KT 10SM SCT037 07/M03 A3014 RMK AO2
KFWB 151835Z AUTO 32012G22KT 260V340 10SM BKN039 07/M03 A3015 RMK AO2
KFWB 151815Z AUTO 28010G18KT 10SM BKN037 07/M03 A3015 RMK AO2
KFWB 151755Z AUTO 26008KT 10SM BKN035 08/M02 A3015 RMK AO2
KFWB 151735Z AUTO 27011G16KT 10SM SCT029 07/M02 A3015 RMK AO2
KFWB 151715Z AUTO 28007KT 10SM SCT027 06/M02 A3017 RMK AO2
KFWB 151655Z AUTO 28005KT 10SM SCT025 06/M02 A3018 RMK AO2
KFWB 151635Z AUTO 28008G14KT 10SM CLR 05/M01 A3019 RMK AO2
KFWB 151615Z AUTO 28007KT 10SM CLR 04/M02 A3019 RMK AO2
KFWB 151555Z AUTO 27007KT 10SM FEW033 04/M02 A3019 RMK AO2
KFWB 151535Z AUTO 27004KT 10SM BKN033 03/M02 A3019 RMK AO2
KFWB 151515Z AUTO 29007KT 10SM OVC033 03/M02 A3019 RMK AO2
KFWB 151455Z AUTO 27004KT 10SM OVC035 02/M02 A3018 RMK AO2
KFWB 151435Z AUTO 25005KT 10SM BKN035 02/M02 A3018 RMK AO2
KFWB 151415Z AUTO 25004KT 10SM FEW033 01/M03 A3018 RMK AO2
KFWB 151355Z AUTO 26005KT 10SM CLR 00/M03 A3017 RMK AO2
KFWB 151335Z AUTO 25004KT 10SM BKN033 00/M03 A3016 RMK AO2
KFWB 151315Z AUTO 27005KT 10SM BKN033 00/M03 A3015 RMK AO2
KFWB 151255Z AUTO 25005KT 10SM SCT065 00/M03 A3015 RMK AO2
KFWB 151235Z AUTO 29006KT 10SM OVC065 01/M03 A3015 RMK AO2
KFWB 151215Z AUTO 28006KT 10SM OVC065 01/M03 A3015 RMK AO2
KFWB 151155Z AUTO 28005KT 10SM OVC065 01/M03 A3014 RMK AO2
KFWB 151135Z AUTO 26005KT 10SM OVC065 01/M03 A3013 RMK AO2
KFWB 151115Z AUTO 27005KT 10SM FEW042 OVC065 00/M03 A3013 RMK AO2
KFWB 151055Z AUTO 25006KT 10SM SCT044 OVC065 01/M03 A3013 RMK AO2
KFWB 151035Z AUTO 25006KT 10SM FEW044 OVC065 01/M03 A3013 RMK AO2
KFWB 151015Z AUTO 26005KT 10SM OVC065 02/M03 A3013 RMK AO2
KFWB 150955Z AUTO 25006KT 10SM FEW043 OVC065 01/M03 A3013 RMK AO2
KFWB 150935Z AUTO 25005KT 10SM OVC043 01/M03 A3013 RMK AO2
KFWB 150915Z AUTO 25005KT 10SM OVC045 00/M03 A3013 RMK AO2
KFWB 150855Z AUTO 00000KT 10SM BKN045 OVC065 01/M03 A3013 RMK AO2
KFWB 150835Z AUTO 25003KT 10SM SCT049 OVC055 00/M03 A3013 RMK AO2
KFWB 150815Z AUTO 26003KT 10SM OVC055 00/M03 A3013 RMK AO2
KFWB 150755Z AUTO 00000KT 10SM OVC055 00/M03 A3012 RMK AO2
KFWB 150735Z AUTO 00000KT 10SM OVC055 00/M04 A3012 RMK AO2
KFWB 150715Z AUTO 00000KT 10SM OVC049 00/M04 A3011 RMK AO2
KFWB 150655Z AUTO 00000KT 10SM OVC049 00/M04 A3012 RMK AO2
KFWB 150635Z AUTO 00000KT 10SM OVC049 00/M04 A3012 RMK AO2
KFWB 150615Z AUTO 00000KT 10SM OVC049 00/M04 A3012 RMK AO2
KFWB 150555Z AUTO 00000KT 10SM OVC049 00/M04 A3012 RMK AO2
KFWB 150535Z AUTO 00000KT 10SM OVC049 00/M04 A3012 RMK AO2
KFWB 150515Z AUTO 00000KT 10SM OVC049 00/M04 A3012 RMK AO2
KFWB 150455Z AUTO 00000KT 10SM OVC047 00/M04 A3012 RMK AO2
KFWB 150435Z AUTO 00000KT 10SM OVC047 01/M04 A3012 RMK AO2
KFWB 150415Z AUTO 00000KT 10SM OVC049 01/M04 A3013 RMK AO2
KFWB 150355Z AUTO 00000KT 10SM OVC049 01/M04 A3013 RMK AO2
KFWB 150335Z AUTO 00000KT 10SM OVC049 01/M04 A3013 RMK AO2
KFWB 150315Z AUTO 00000KT 10SM OVC049 01/M04 A3013 RMK AO2
KFWB 150255Z AUTO 00000KT 10SM OVC049 02/M04 A3014 RMK AO2
KFWB 150235Z AUTO 00000KT 10SM OVC047 02/M04 A3014 RMK AO2
KFWB 150215Z AUTO 00000KT 10SM OVC047 02/M04 A3014 RMK AO2
KFWB 150155Z AUTO 00000KT 10SM OVC045 02/M04 A3013 RMK AO2
KFWB 150135Z AUTO 00000KT 10SM OVC043 03/M04 A3013 RMK AO2
KFWB 150115Z AUTO 27004KT 10SM OVC043 03/M04 A3013 RMK AO2
KFWB 150055Z AUTO 28004KT 10SM OVC043 03/M04 A3012 RMK AO2
KFWB 150035Z AUTO 31003KT 10SM OVC043 03/M04 A3012 RMK AO2
KFWB 150015Z AUTO 31004KT 10SM OVC041 03/M04 A3011 RMK AO2
KFWB 142355Z AUTO 31004KT 10SM OVC041 03/M04 A3011 RMK AO2
KFWB 142335Z AUTO 31004KT 10SM OVC041 03/M05 A3009 RMK AO2
KFWB 142315Z AUTO 33005KT 10SM OVC039 03/M05 A3008 RMK AO2
KFWB 142255Z AUTO 32004KT 10SM OVC039 03/M05 A3009 RMK AO2
KFWB 142235Z AUTO 33004KT 10SM OVC041 03/M05 A3008 RMK AO2
KFWB 142215Z AUTO 32006KT 10SM OVC039 03/M05 A3008 RMK AO2
KFWB 142155Z AUTO 33005KT 10SM OVC039 04/M05 A3008 RMK AO2
KFWB 142135Z AUTO 34006KT 10SM OVC039 04/M05 A3008 RMK AO2
KFWB 142115Z AUTO 34006KT 10SM OVC039 04/M05 A3007 RMK AO2
KFWB 142055Z AUTO 30005KT 10SM OVC039 04/M05 A3008 RMK AO2
KFWB 142035Z AUTO 32005KT 10SM OVC039 04/M05 A3008 RMK AO2
KFWB 142015Z AUTO 34006KT 300V360 10SM OVC039 04/M05 A3007 RMK AO2
KFWB 141955Z AUTO 35007KT 10SM OVC039 04/M05 A3008 RMK AO2
KFWB 141935Z AUTO 35007KT 10SM OVC039 04/M05 A3008 RMK AO2
KFWB 141915Z AUTO 34008G16KT 10SM OVC037 04/M05 A3008 RMK AO2
KFWB 141855Z AUTO 33008KT 310V010 10SM OVC037 04/M05 A3008 RMK AO2
KFWB 141835Z AUTO 35008KT 10SM OVC037 04/M05 A3008 RMK AO2
KFWB 141815Z AUTO 33006KT 310V010 10SM OVC037 04/M05 A3008 RMK AO2
KFWB 141755Z AUTO 36008G15KT 10SM OVC037 04/M05 A3008 RMK AO2
KFWB 141735Z AUTO 01009G15KT 10SM OVC037 04/M05 A3009 RMK AO2
KFWB 141715Z AUTO 01012G16KT 10SM BKN037 04/M05 A3009 RMK AO2
KFWB 141655Z AUTO 36010KT 10SM FEW035 03/M05 A3009 RMK AO2
KFWB 141635Z AUTO 36011G17KT 10SM SCT035 03/M05 A3008 RMK AO2
KFWB 141615Z AUTO 35008G17KT 320V060 10SM SCT033 03/M05 A3010 RMK AO2
KFWB 141555Z AUTO 35008G15KT 10SM SCT031 03/M05 A3010 RMK AO2
KFWB 141535Z AUTO 35008G14KT 10SM BKN035 03/M04 A3009 RMK AO2
KFWB 141515Z AUTO 34009G18KT 10SM OVC035 03/M04 A3008 RMK AO2
KFWB 141455Z AUTO 34009KT 310V020 10SM OVC035 03/M03 A3006 RMK AO2
KFWB 141435Z AUTO 02004KT 10SM OVC035 02/M03 A3005 RMK AO2
KFWB 141415Z AUTO 25004KT 10SM OVC033 00/M03 A3006 RMK AO2
KFWB 141355Z AUTO 24003KT 10SM OVC031 01/M03 A3005 RMK AO2
KFWB 141335Z AUTO 34004KT 10SM OVC031 00/M03 A3003 RMK AO2
KFWB 141315Z AUTO 35003KT 10SM OVC033 00/M03 A3002 RMK AO2
KFWB 141255Z AUTO 01003KT 10SM OVC033 00/M03 A3002 RMK AO2
KFWB 141235Z AUTO 00000KT 10SM OVC031 00/M03 A3001 RMK AO2
KFWB 141215Z AUTO 00000KT 10SM OVC031 00/M03 A3000 RMK AO2
KFWB 141155Z AUTO 00000KT 10SM BKN031 00/M03 A3000 RMK AO2
KFWB 141135Z AUTO 34003KT 10SM SCT031 00/M03 A2999 RMK AO2
KFWB 141115Z AUTO 35003KT 10SM FEW031 00/M03 A2999 RMK AO2
KFWB 141055Z AUTO 34004KT 10SM CLR 01/M03 A2998 RMK AO2
KFWB 141035Z AUTO 00000KT 10SM CLR 02/M03 A2997 RMK AO2
KFWB 141015Z AUTO 00000KT 10SM CLR 02/M03 A2996 RMK AO2
KFWB 140955Z AUTO 00000KT 10SM CLR 02/M03 A2996 RMK AO2
KFWB 140935Z AUTO 00000KT 10SM CLR 02/M03 A2995 RMK AO2
KFWB 140915Z AUTO 02004KT 10SM CLR 02/M03 A2995 RMK AO2
KFWB 140855Z AUTO 02006KT 10SM CLR 03/M03 A2995 RMK AO2
KFWB 140835Z AUTO 35007KT 10SM CLR 04/M03 A2994 RMK AO2
KFWB 140815Z AUTO 36010KT 10SM CLR 04/M02 A2994 RMK AO2